Terminal Aerodrome Forecast
Issued by NWS Twin Cities, MN

Home | Current Version | Previous Version | Text Only | Print | Product List | Glossary Off
Versions: 1 2 3 4 5 6 7 8 9 10 11 12 13 14

315
FTUS43 KMPX 271120
TAFEAU
TAF
KEAU 271120Z 2712/2812 21005KT P6SM SKC
     FM271400 24007KT P6SM SCT250
     FM271800 22012KT P6SM SCT050 BKN250
     FM280100 17007KT P6SM BKN250
     FM281100 14009KT P6SM VCSH SCT035 OVC060=

USA.gov is the U.S. government's official web portal to all federal, state and local government web resources and services.